sensor_id;sensor_type;location;lat;lon;timestamp;P1;durP1;ratioP1;P2;durP2;ratioP2
27187;SDS011;14708;50.872;5.306;2023-05-19T00:00:55;10.55;;;6.20;;
27187;SDS011;14708;50.872;5.306;2023-05-19T00:03:23;8.48;;;5.80;;
27187;SDS011;14708;50.872;5.306;2023-05-19T00:05:49;11.10;;;5.68;;
27187;SDS011;14708;50.872;5.306;2023-05-19T00:08:18;9.57;;;5.78;;
27187;SDS011;14708;50.872;5.306;2023-05-19T00:10:44;6.65;;;5.43;;
27187;SDS011;14708;50.872;5.306;2023-05-19T00:13:10;9.27;;;5.43;;
27187;SDS011;14708;50.872;5.306;2023-05-19T00:15:36;9.35;;;5.43;;
27187;SDS011;14708;50.872;5.306;2023-05-19T00:18:02;8.70;;;5.75;;
27187;SDS011;14708;50.872;5.306;2023-05-19T00:20:28;9.02;;;5.50;;
27187;SDS011;14708;50.872;5.306;2023-05-19T00:22:53;9.45;;;5.82;;
27187;SDS011;14708;50.872;5.306;2023-05-19T00:25:19;9.52;;;5.78;;
27187;SDS011;14708;50.872;5.306;2023-05-19T00:27:45;8.38;;;5.40;;
27187;SDS011;14708;50.872;5.306;2023-05-19T00:30:11;8.65;;;6.28;;
27187;SDS011;14708;50.872;5.306;2023-05-19T00:32:37;8.30;;;5.18;;
27187;SDS011;14708;50.872;5.306;2023-05-19T00:35:02;9.85;;;5.53;;
27187;SDS011;14708;50.872;5.306;2023-05-19T00:37:28;8.45;;;5.63;;
27187;SDS011;14708;50.872;5.306;2023-05-19T00:39:54;8.57;;;5.50;;
27187;SDS011;14708;50.872;5.306;2023-05-19T00:42:20;8.50;;;5.07;;
27187;SDS011;14708;50.872;5.306;2023-05-19T00:44:45;8.90;;;5.55;;
27187;SDS011;14708;50.872;5.306;2023-05-19T00:47:11;8.57;;;5.25;;
27187;SDS011;14708;50.872;5.306;2023-05-19T00:49:37;8.07;;;5.03;;
27187;SDS011;14708;50.872;5.306;2023-05-19T00:52:02;8.27;;;5.22;;
27187;SDS011;14708;50.872;5.306;2023-05-19T00:54:31;8.60;;;5.55;;
27187;SDS011;14708;50.872;5.306;2023-05-19T00:56:58;8.98;;;5.78;;
27187;SDS011;14708;50.872;5.306;2023-05-19T00:59:24;8.18;;;5.05;;
27187;SDS011;14708;50.872;5.306;2023-05-19T01:01:50;7.18;;;4.97;;
27187;SDS011;14708;50.872;5.306;2023-05-19T01:04:19;9.90;;;5.97;;
27187;SDS011;14708;50.872;5.306;2023-05-19T01:06:48;7.93;;;6.00;;
27187;SDS011;14708;50.872;5.306;2023-05-19T01:09:21;8.07;;;5.25;;
27187;SDS011;14708;50.872;5.306;2023-05-19T01:11:47;8.07;;;5.45;;
27187;SDS011;14708;50.872;5.306;2023-05-19T01:14:17;8.88;;;4.85;;
27187;SDS011;14708;50.872;5.306;2023-05-19T01:17:47;8.63;;;5.25;;
27187;SDS011;14708;50.872;5.306;2023-05-19T01:20:09;7.78;;;5.03;;
27187;SDS011;14708;50.872;5.306;2023-05-19T01:28:37;7.50;;;4.80;;
27187;SDS011;14708;50.872;5.306;2023-05-19T01:31:07;6.93;;;4.85;;
27187;SDS011;14708;50.872;5.306;2023-05-19T01:33:35;6.17;;;4.40;;
27187;SDS011;14708;50.872;5.306;2023-05-19T01:36:03;6.18;;;4.43;;
27187;SDS011;14708;50.872;5.306;2023-05-19T01:38:32;7.55;;;5.40;;
27187;SDS011;14708;50.872;5.306;2023-05-19T01:40:59;7.95;;;5.65;;
27187;SDS011;14708;50.872;5.306;2023-05-19T01:43:28;7.97;;;5.57;;
27187;SDS011;14708;50.872;5.306;2023-05-19T01:45:55;9.60;;;5.05;;
27187;SDS011;14708;50.872;5.306;2023-05-19T01:48:22;7.45;;;4.53;;
27187;SDS011;14708;50.872;5.306;2023-05-19T01:50:48;8.85;;;5.05;;
27187;SDS011;14708;50.872;5.306;2023-05-19T01:53:15;6.78;;;4.85;;
27187;SDS011;14708;50.872;5.306;2023-05-19T01:55:51;9.15;;;5.30;;
27187;SDS011;14708;50.872;5.306;2023-05-19T01:58:30;9.95;;;5.28;;
27187;SDS011;14708;50.872;5.306;2023-05-19T02:03:36;6.55;;;4.43;;
27187;SDS011;14708;50.872;5.306;2023-05-19T02:11:29;7.83;;;4.90;;
27187;SDS011;14708;50.872;5.306;2023-05-19T02:14:19;5.63;;;4.22;;
27187;SDS011;14708;50.872;5.306;2023-05-19T02:16:49;7.60;;;5.03;;
27187;SDS011;14708;50.872;5.306;2023-05-19T02:19:24;7.43;;;5.35;;
27187;SDS011;14708;50.872;5.306;2023-05-19T02:21:52;7.28;;;5.45;;
27187;SDS011;14708;50.872;5.306;2023-05-19T02:24:18;6.22;;;4.90;;
27187;SDS011;14708;50.872;5.306;2023-05-19T02:26:47;5.45;;;3.92;;
27187;SDS011;14708;50.872;5.306;2023-05-19T02:29:13;6.85;;;4.75;;
27187;SDS011;14708;50.872;5.306;2023-05-19T02:31:39;6.03;;;4.60;;
27187;SDS011;14708;50.872;5.306;2023-05-19T02:34:04;6.45;;;4.35;;
27187;SDS011;14708;50.872;5.306;2023-05-19T02:36:32;6.35;;;4.65;;
27187;SDS011;14708;50.872;5.306;2023-05-19T02:39:04;6.43;;;4.32;;
27187;SDS011;14708;50.872;5.306;2023-05-19T02:41:30;7.43;;;5.37;;
27187;SDS011;14708;50.872;5.306;2023-05-19T02:43:55;9.35;;;4.97;;
27187;SDS011;14708;50.872;5.306;2023-05-19T02:46:22;6.40;;;4.90;;
27187;SDS011;14708;50.872;5.306;2023-05-19T02:48:48;6.63;;;4.80;;
27187;SDS011;14708;50.872;5.306;2023-05-19T02:51:14;7.43;;;5.03;;
27187;SDS011;14708;50.872;5.306;2023-05-19T02:53:40;7.10;;;4.65;;
27187;SDS011;14708;50.872;5.306;2023-05-19T02:56:06;8.75;;;5.10;;
27187;SDS011;14708;50.872;5.306;2023-05-19T02:58:32;6.95;;;4.78;;
27187;SDS011;14708;50.872;5.306;2023-05-19T03:00:58;7.95;;;4.82;;
27187;SDS011;14708;50.872;5.306;2023-05-19T03:03:24;6.43;;;4.25;;
27187;SDS011;14708;50.872;5.306;2023-05-19T03:05:49;7.60;;;5.28;;
27187;SDS011;14708;50.872;5.306;2023-05-19T03:08:15;6.63;;;4.57;;
27187;SDS011;14708;50.872;5.306;2023-05-19T03:10:41;5.88;;;4.53;;
27187;SDS011;14708;50.872;5.306;2023-05-19T03:13:07;6.28;;;4.78;;
27187;SDS011;14708;50.872;5.306;2023-05-19T03:15:32;6.70;;;4.97;;
27187;SDS011;14708;50.872;5.306;2023-05-19T03:17:58;6.72;;;5.05;;
27187;SDS011;14708;50.872;5.306;2023-05-19T03:20:24;6.38;;;4.40;;
27187;SDS011;14708;50.872;5.306;2023-05-19T03:22:49;5.78;;;4.40;;
27187;SDS011;14708;50.872;5.306;2023-05-19T03:25:15;7.07;;;4.90;;
27187;SDS011;14708;50.872;5.306;2023-05-19T03:27:41;8.05;;;4.82;;
27187;SDS011;14708;50.872;5.306;2023-05-19T03:30:07;5.47;;;4.70;;
27187;SDS011;14708;50.872;5.306;2023-05-19T03:32:33;6.05;;;4.53;;
27187;SDS011;14708;50.872;5.306;2023-05-19T03:35:02;5.13;;;3.92;;
27187;SDS011;14708;50.872;5.306;2023-05-19T03:37:29;6.00;;;4.05;;
27187;SDS011;14708;50.872;5.306;2023-05-19T03:39:54;6.35;;;4.53;;
27187;SDS011;14708;50.872;5.306;2023-05-19T03:42:20;6.40;;;4.57;;
27187;SDS011;14708;50.872;5.306;2023-05-19T03:44:46;6.90;;;4.65;;
27187;SDS011;14708;50.872;5.306;2023-05-19T03:47:11;6.50;;;4.28;;
27187;SDS011;14708;50.872;5.306;2023-05-19T03:49:37;6.53;;;4.85;;
27187;SDS011;14708;50.872;5.306;2023-05-19T03:52:03;6.53;;;4.40;;
27187;SDS011;14708;50.872;5.306;2023-05-19T03:54:28;5.03;;;4.22;;
27187;SDS011;14708;50.872;5.306;2023-05-19T03:56:54;7.00;;;5.20;;
27187;SDS011;14708;50.872;5.306;2023-05-19T03:59:20;7.25;;;4.53;;
27187;SDS011;14708;50.872;5.306;2023-05-19T04:01:47;6.95;;;4.35;;
27187;SDS011;14708;50.872;5.306;2023-05-19T04:04:13;6.57;;;4.13;;
27187;SDS011;14708;50.872;5.306;2023-05-19T04:06:39;6.68;;;4.57;;
27187;SDS011;14708;50.872;5.306;2023-05-19T04:09:10;6.65;;;4.70;;
27187;SDS011;14708;50.872;5.306;2023-05-19T04:11:37;5.60;;;4.07;;
27187;SDS011;14708;50.872;5.306;2023-05-19T04:14:04;5.95;;;4.22;;
27187;SDS011;14708;50.872;5.306;2023-05-19T04:16:30;6.68;;;4.65;;
27187;SDS011;14708;50.872;5.306;2023-05-19T04:18:56;6.07;;;4.18;;
27187;SDS011;14708;50.872;5.306;2023-05-19T04:21:21;5.13;;;3.45;;
27187;SDS011;14708;50.872;5.306;2023-05-19T04:23:47;5.35;;;3.47;;
27187;SDS011;14708;50.872;5.306;2023-05-19T04:26:13;5.20;;;3.67;;
27187;SDS011;14708;50.872;5.306;2023-05-19T04:28:43;5.88;;;4.20;;
27187;SDS011;14708;50.872;5.306;2023-05-19T04:31:09;5.47;;;3.85;;
27187;SDS011;14708;50.872;5.306;2023-05-19T04:33:36;4.95;;;4.00;;
27187;SDS011;14708;50.872;5.306;2023-05-19T04:36:02;5.28;;;4.20;;
27187;SDS011;14708;50.872;5.306;2023-05-19T04:38:32;5.43;;;4.25;;
27187;SDS011;14708;50.872;5.306;2023-05-19T04:40:58;5.60;;;3.58;;
27187;SDS011;14708;50.872;5.306;2023-05-19T04:43:26;5.20;;;3.63;;
27187;SDS011;14708;50.872;5.306;2023-05-19T04:45:52;5.65;;;3.53;;
27187;SDS011;14708;50.872;5.306;2023-05-19T04:48:18;5.43;;;3.20;;
27187;SDS011;14708;50.872;5.306;2023-05-19T04:50:45;5.85;;;3.63;;
27187;SDS011;14708;50.872;5.306;2023-05-19T04:53:13;5.10;;;3.33;;
27187;SDS011;14708;50.872;5.306;2023-05-19T04:55:39;5.28;;;3.90;;
27187;SDS011;14708;50.872;5.306;2023-05-19T04:58:04;4.30;;;2.95;;
27187;SDS011;14708;50.872;5.306;2023-05-19T05:00:31;4.22;;;3.28;;
27187;SDS011;14708;50.872;5.306;2023-05-19T05:02:56;4.78;;;3.78;;
27187;SDS011;14708;50.872;5.306;2023-05-19T05:05:22;6.85;;;4.32;;
27187;SDS011;14708;50.872;5.306;2023-05-19T05:07:48;5.30;;;3.63;;
27187;SDS011;14708;50.872;5.306;2023-05-19T05:10:14;7.25;;;3.67;;
27187;SDS011;14708;50.872;5.306;2023-05-19T05:12:40;14.35;;;5.85;;
27187;SDS011;14708;50.872;5.306;2023-05-19T05:15:06;23.17;;;8.25;;
27187;SDS011;14708;50.872;5.306;2023-05-19T05:17:33;48.17;;;8.90;;
27187;SDS011;14708;50.872;5.306;2023-05-19T05:20:00;27.58;;;8.35;;
27187;SDS011;14708;50.872;5.306;2023-05-19T05:22:26;28.70;;;8.80;;
27187;SDS011;14708;50.872;5.306;2023-05-19T05:24:52;31.98;;;8.95;;
27187;SDS011;14708;50.872;5.306;2023-05-19T05:27:18;34.08;;;9.85;;
27187;SDS011;14708;50.872;5.306;2023-05-19T05:29:43;35.00;;;11.02;;
27187;SDS011;14708;50.872;5.306;2023-05-19T05:32:09;35.20;;;9.65;;
27187;SDS011;14708;50.872;5.306;2023-05-19T05:34:35;34.90;;;9.63;;
27187;SDS011;14708;50.872;5.306;2023-05-19T05:37:02;35.08;;;10.60;;
27187;SDS011;14708;50.872;5.306;2023-05-19T05:39:27;34.85;;;9.27;;
27187;SDS011;14708;50.872;5.306;2023-05-19T05:41:53;28.02;;;9.02;;
27187;SDS011;14708;50.872;5.306;2023-05-19T05:44:19;31.83;;;9.30;;
27187;SDS011;14708;50.872;5.306;2023-05-19T05:46:45;31.52;;;9.13;;
27187;SDS011;14708;50.872;5.306;2023-05-19T05:49:11;34.45;;;9.40;;
27187;SDS011;14708;50.872;5.306;2023-05-19T05:51:37;35.17;;;9.30;;
27187;SDS011;14708;50.872;5.306;2023-05-19T05:54:04;30.48;;;9.18;;
27187;SDS011;14708;50.872;5.306;2023-05-19T05:56:31;32.88;;;10.00;;
27187;SDS011;14708;50.872;5.306;2023-05-19T05:59:01;30.80;;;8.95;;
27187;SDS011;14708;50.872;5.306;2023-05-19T06:01:27;30.92;;;9.13;;
27187;SDS011;14708;50.872;5.306;2023-05-19T06:03:54;36.25;;;10.05;;
27187;SDS011;14708;50.872;5.306;2023-05-19T06:06:20;30.88;;;9.65;;
27187;SDS011;14708;50.872;5.306;2023-05-19T06:08:46;26.70;;;9.57;;
27187;SDS011;14708;50.872;5.306;2023-05-19T06:11:11;29.67;;;9.57;;
27187;SDS011;14708;50.872;5.306;2023-05-19T06:13:37;26.30;;;9.55;;
27187;SDS011;14708;50.872;5.306;2023-05-19T06:16:05;27.95;;;9.68;;
27187;SDS011;14708;50.872;5.306;2023-05-19T06:18:31;30.92;;;8.65;;
27187;SDS011;14708;50.872;5.306;2023-05-19T06:20:57;26.67;;;9.55;;
27187;SDS011;14708;50.872;5.306;2023-05-19T06:23:23;28.23;;;9.68;;
27187;SDS011;14708;50.872;5.306;2023-05-19T06:25:50;34.88;;;10.63;;
27187;SDS011;14708;50.872;5.306;2023-05-19T06:28:16;30.13;;;9.45;;
27187;SDS011;14708;50.872;5.306;2023-05-19T06:30:42;28.30;;;9.13;;
27187;SDS011;14708;50.872;5.306;2023-05-19T06:33:07;26.67;;;9.00;;
27187;SDS011;14708;50.872;5.306;2023-05-19T06:35:33;36.13;;;9.50;;
27187;SDS011;14708;50.872;5.306;2023-05-19T06:37:58;32.88;;;10.00;;
27187;SDS011;14708;50.872;5.306;2023-05-19T06:40:24;23.17;;;8.77;;
27187;SDS011;14708;50.872;5.306;2023-05-19T06:42:50;29.90;;;8.98;;
27187;SDS011;14708;50.872;5.306;2023-05-19T06:45:15;26.45;;;8.65;;
27187;SDS011;14708;50.872;5.306;2023-05-19T06:47:45;28.05;;;9.25;;
27187;SDS011;14708;50.872;5.306;2023-05-19T06:50:11;22.83;;;8.07;;
27187;SDS011;14708;50.872;5.306;2023-05-19T06:52:37;31.25;;;9.05;;
27187;SDS011;14708;50.872;5.306;2023-05-19T06:55:03;29.48;;;10.18;;
27187;SDS011;14708;50.872;5.306;2023-05-19T06:57:29;24.48;;;9.30;;
27187;SDS011;14708;50.872;5.306;2023-05-19T06:59:54;25.00;;;9.20;;
27187;SDS011;14708;50.872;5.306;2023-05-19T07:02:20;25.40;;;9.32;;
27187;SDS011;14708;50.872;5.306;2023-05-19T07:04:46;27.70;;;9.07;;
27187;SDS011;14708;50.872;5.306;2023-05-19T07:07:12;25.17;;;8.52;;
27187;SDS011;14708;50.872;5.306;2023-05-19T07:09:37;28.38;;;9.07;;
27187;SDS011;14708;50.872;5.306;2023-05-19T07:12:03;21.60;;;8.68;;
27187;SDS011;14708;50.872;5.306;2023-05-19T07:14:29;32.83;;;8.75;;
27187;SDS011;14708;50.872;5.306;2023-05-19T07:16:55;22.08;;;9.07;;
27187;SDS011;14708;50.872;5.306;2023-05-19T07:19:21;26.23;;;8.43;;
27187;SDS011;14708;50.872;5.306;2023-05-19T07:21:47;27.60;;;9.07;;
27187;SDS011;14708;50.872;5.306;2023-05-19T07:24:13;23.38;;;8.80;;
27187;SDS011;14708;50.872;5.306;2023-05-19T07:26:39;25.10;;;8.13;;
27187;SDS011;14708;50.872;5.306;2023-05-19T07:29:05;27.83;;;9.30;;
27187;SDS011;14708;50.872;5.306;2023-05-19T07:31:31;28.35;;;8.65;;
27187;SDS011;14708;50.872;5.306;2023-05-19T07:33:57;24.80;;;8.50;;
27187;SDS011;14708;50.872;5.306;2023-05-19T07:36:23;31.85;;;9.02;;
27187;SDS011;14708;50.872;5.306;2023-05-19T07:38:48;22.92;;;8.82;;
27187;SDS011;14708;50.872;5.306;2023-05-19T07:41:14;24.38;;;8.60;;
27187;SDS011;14708;50.872;5.306;2023-05-19T07:43:39;30.63;;;8.18;;
27187;SDS011;14708;50.872;5.306;2023-05-19T07:46:05;21.38;;;6.75;;
27187;SDS011;14708;50.872;5.306;2023-05-19T07:48:31;17.17;;;7.38;;
27187;SDS011;14708;50.872;5.306;2023-05-19T07:50:56;21.77;;;7.20;;
27187;SDS011;14708;50.872;5.306;2023-05-19T07:53:22;19.38;;;7.50;;
27187;SDS011;14708;50.872;5.306;2023-05-19T07:55:48;18.70;;;6.40;;
27187;SDS011;14708;50.872;5.306;2023-05-19T07:58:15;21.05;;;6.72;;
27187;SDS011;14708;50.872;5.306;2023-05-19T08:00:45;19.70;;;6.47;;
27187;SDS011;14708;50.872;5.306;2023-05-19T08:03:11;20.70;;;6.53;;
27187;SDS011;14708;50.872;5.306;2023-05-19T08:05:37;20.70;;;7.13;;
27187;SDS011;14708;50.872;5.306;2023-05-19T08:08:04;16.15;;;6.53;;
27187;SDS011;14708;50.872;5.306;2023-05-19T08:10:30;23.00;;;7.88;;
27187;SDS011;14708;50.872;5.306;2023-05-19T08:12:57;17.85;;;7.18;;
27187;SDS011;14708;50.872;5.306;2023-05-19T08:15:30;15.40;;;6.38;;
27187;SDS011;14708;50.872;5.306;2023-05-19T08:18:02;24.70;;;7.85;;
27187;SDS011;14708;50.872;5.306;2023-05-19T08:20:32;15.20;;;6.03;;
27187;SDS011;14708;50.872;5.306;2023-05-19T08:22:59;21.25;;;7.00;;
27187;SDS011;14708;50.872;5.306;2023-05-19T08:25:32;23.08;;;6.70;;
27187;SDS011;14708;50.872;5.306;2023-05-19T08:27:59;23.60;;;6.57;;
27187;SDS011;14708;50.872;5.306;2023-05-19T08:30:54;20.30;;;6.85;;
27187;SDS011;14708;50.872;5.306;2023-05-19T08:33:20;22.20;;;7.32;;
27187;SDS011;14708;50.872;5.306;2023-05-19T08:35:55;23.20;;;8.00;;
27187;SDS011;14708;50.872;5.306;2023-05-19T08:38:27;26.20;;;7.35;;
27187;SDS011;14708;50.872;5.306;2023-05-19T08:41:03;22.00;;;6.22;;
27187;SDS011;14708;50.872;5.306;2023-05-19T08:43:35;28.48;;;7.65;;
27187;SDS011;14708;50.872;5.306;2023-05-19T08:46:03;19.63;;;7.30;;
27187;SDS011;14708;50.872;5.306;2023-05-19T08:48:32;18.58;;;6.63;;
27187;SDS011;14708;50.872;5.306;2023-05-19T08:51:10;21.92;;;7.80;;
27187;SDS011;14708;50.872;5.306;2023-05-19T08:54:11;21.33;;;7.63;;
27187;SDS011;14708;50.872;5.306;2023-05-19T08:56:43;22.23;;;7.55;;
27187;SDS011;14708;50.872;5.306;2023-05-19T08:59:10;28.20;;;8.65;;
27187;SDS011;14708;50.872;5.306;2023-05-19T09:01:58;33.13;;;9.17;;
27187;SDS011;14708;50.872;5.306;2023-05-19T09:04:24;26.27;;;8.65;;
27187;SDS011;14708;50.872;5.306;2023-05-19T09:06:52;26.23;;;8.82;;
27187;SDS011;14708;50.872;5.306;2023-05-19T09:09:20;29.77;;;8.90;;
27187;SDS011;14708;50.872;5.306;2023-05-19T09:11:49;37.60;;;10.00;;
27187;SDS011;14708;50.872;5.306;2023-05-19T09:14:19;34.15;;;9.07;;
27187;SDS011;14708;50.872;5.306;2023-05-19T09:16:45;23.13;;;8.52;;
27187;SDS011;14708;50.872;5.306;2023-05-19T09:19:33;27.20;;;8.20;;
27187;SDS011;14708;50.872;5.306;2023-05-19T09:22:07;27.50;;;8.73;;
27187;SDS011;14708;50.872;5.306;2023-05-19T09:24:40;21.42;;;8.65;;
27187;SDS011;14708;50.872;5.306;2023-05-19T09:27:19;28.02;;;8.48;;
27187;SDS011;14708;50.872;5.306;2023-05-19T09:30:05;30.63;;;8.85;;
27187;SDS011;14708;50.872;5.306;2023-05-19T09:32:38;31.00;;;8.55;;
27187;SDS011;14708;50.872;5.306;2023-05-19T09:35:10;31.00;;;8.77;;
27187;SDS011;14708;50.872;5.306;2023-05-19T09:37:44;29.08;;;9.10;;
27187;SDS011;14708;50.872;5.306;2023-05-19T09:40:12;31.95;;;9.18;;
27187;SDS011;14708;50.872;5.306;2023-05-19T09:42:39;20.48;;;7.75;;
27187;SDS011;14708;50.872;5.306;2023-05-19T09:45:06;23.90;;;8.25;;
27187;SDS011;14708;50.872;5.306;2023-05-19T09:47:37;21.52;;;7.72;;
27187;SDS011;14708;50.872;5.306;2023-05-19T09:50:09;21.80;;;7.80;;
27187;SDS011;14708;50.872;5.306;2023-05-19T09:52:39;21.98;;;8.25;;
27187;SDS011;14708;50.872;5.306;2023-05-19T09:55:11;20.85;;;8.02;;
27187;SDS011;14708;50.872;5.306;2023-05-19T09:57:37;26.55;;;7.68;;
27187;SDS011;14708;50.872;5.306;2023-05-19T10:00:07;20.27;;;7.00;;
27187;SDS011;14708;50.872;5.306;2023-05-19T10:02:42;23.08;;;7.53;;
27187;SDS011;14708;50.872;5.306;2023-05-19T10:05:10;20.70;;;8.20;;
27187;SDS011;14708;50.872;5.306;2023-05-19T10:07:44;23.77;;;7.53;;
27187;SDS011;14708;50.872;5.306;2023-05-19T10:10:13;18.33;;;7.22;;
27187;SDS011;14708;50.872;5.306;2023-05-19T10:12:40;20.92;;;7.40;;
27187;SDS011;14708;50.872;5.306;2023-05-19T10:15:07;25.63;;;7.78;;
27187;SDS011;14708;50.872;5.306;2023-05-19T10:17:36;22.45;;;7.95;;
27187;SDS011;14708;50.872;5.306;2023-05-19T10:20:03;19.80;;;7.32;;
27187;SDS011;14708;50.872;5.306;2023-05-19T10:22:31;23.02;;;7.70;;
27187;SDS011;14708;50.872;5.306;2023-05-19T10:24:57;21.98;;;7.78;;
27187;SDS011;14708;50.872;5.306;2023-05-19T10:27:23;16.45;;;7.25;;
27187;SDS011;14708;50.872;5.306;2023-05-19T10:29:52;15.75;;;6.05;;
27187;SDS011;14708;50.872;5.306;2023-05-19T10:32:22;17.45;;;6.75;;
27187;SDS011;14708;50.872;5.306;2023-05-19T10:42:58;18.75;;;7.10;;
27187;SDS011;14708;50.872;5.306;2023-05-19T10:45:32;14.25;;;5.90;;
27187;SDS011;14708;50.872;5.306;2023-05-19T10:48:03;20.02;;;7.03;;
27187;SDS011;14708;50.872;5.306;2023-05-19T10:50:34;18.38;;;6.70;;
27187;SDS011;14708;50.872;5.306;2023-05-19T10:53:01;14.77;;;6.57;;
27187;SDS011;14708;50.872;5.306;2023-05-19T11:01:05;19.23;;;6.68;;
27187;SDS011;14708;50.872;5.306;2023-05-19T11:03:35;19.25;;;6.13;;
27187;SDS011;14708;50.872;5.306;2023-05-19T11:08:42;13.90;;;6.18;;
27187;SDS011;14708;50.872;5.306;2023-05-19T11:11:14;18.02;;;6.95;;
27187;SDS011;14708;50.872;5.306;2023-05-19T11:13:51;15.45;;;5.68;;
27187;SDS011;14708;50.872;5.306;2023-05-19T11:18:53;14.50;;;5.97;;
27187;SDS011;14708;50.872;5.306;2023-05-19T11:21:20;13.30;;;6.13;;
27187;SDS011;14708;50.872;5.306;2023-05-19T11:23:45;18.88;;;6.15;;
27187;SDS011;14708;50.872;5.306;2023-05-19T11:26:11;14.75;;;5.65;;
27187;SDS011;14708;50.872;5.306;2023-05-19T11:28:37;16.42;;;6.10;;
27187;SDS011;14708;50.872;5.306;2023-05-19T11:31:03;12.85;;;5.70;;
27187;SDS011;14708;50.872;5.306;2023-05-19T11:33:32;12.47;;;5.97;;
27187;SDS011;14708;50.872;5.306;2023-05-19T11:35:58;18.40;;;7.03;;
27187;SDS011;14708;50.872;5.306;2023-05-19T11:38:23;16.02;;;6.25;;
27187;SDS011;14708;50.872;5.306;2023-05-19T11:40:53;11.00;;;5.50;;
27187;SDS011;14708;50.872;5.306;2023-05-19T11:43:23;13.63;;;6.10;;
27187;SDS011;14708;50.872;5.306;2023-05-19T11:45:50;14.57;;;6.13;;
27187;SDS011;14708;50.872;5.306;2023-05-19T11:48:15;13.15;;;6.38;;
27187;SDS011;14708;50.872;5.306;2023-05-19T11:50:45;13.15;;;5.82;;
27187;SDS011;14708;50.872;5.306;2023-05-19T11:53:11;12.07;;;5.78;;
27187;SDS011;14708;50.872;5.306;2023-05-19T11:55:41;11.27;;;5.25;;
27187;SDS011;14708;50.872;5.306;2023-05-19T11:58:10;13.18;;;5.65;;
27187;SDS011;14708;50.872;5.306;2023-05-19T12:00:37;12.68;;;4.93;;
27187;SDS011;14708;50.872;5.306;2023-05-19T12:03:04;16.05;;;6.82;;
27187;SDS011;14708;50.872;5.306;2023-05-19T12:05:30;12.73;;;5.63;;
27187;SDS011;14708;50.872;5.306;2023-05-19T12:07:56;12.88;;;5.68;;
27187;SDS011;14708;50.872;5.306;2023-05-19T12:10:22;19.52;;;5.75;;
27187;SDS011;14708;50.872;5.306;2023-05-19T12:12:48;16.38;;;5.32;;
27187;SDS011;14708;50.872;5.306;2023-05-19T12:15:17;13.43;;;5.60;;
27187;SDS011;14708;50.872;5.306;2023-05-19T12:17:45;14.23;;;5.57;;
27187;SDS011;14708;50.872;5.306;2023-05-19T12:20:21;11.23;;;5.72;;
27187;SDS011;14708;50.872;5.306;2023-05-19T12:22:48;11.45;;;5.55;;
27187;SDS011;14708;50.872;5.306;2023-05-19T12:25:14;13.48;;;5.28;;
27187;SDS011;14708;50.872;5.306;2023-05-19T12:27:41;9.95;;;5.05;;
27187;SDS011;14708;50.872;5.306;2023-05-19T12:30:08;13.15;;;5.32;;
27187;SDS011;14708;50.872;5.306;2023-05-19T12:32:34;11.45;;;4.80;;
27187;SDS011;14708;50.872;5.306;2023-05-19T12:35:01;11.85;;;5.28;;
27187;SDS011;14708;50.872;5.306;2023-05-19T12:37:31;12.43;;;5.60;;
27187;SDS011;14708;50.872;5.306;2023-05-19T12:39:58;13.65;;;5.57;;
27187;SDS011;14708;50.872;5.306;2023-05-19T12:42:28;11.25;;;5.47;;
27187;SDS011;14708;50.872;5.306;2023-05-19T12:44:55;11.13;;;4.88;;
27187;SDS011;14708;50.872;5.306;2023-05-19T12:47:27;13.00;;;5.75;;
27187;SDS011;14708;50.872;5.306;2023-05-19T12:50:00;8.52;;;5.03;;
27187;SDS011;14708;50.872;5.306;2023-05-19T12:52:28;9.27;;;5.20;;
27187;SDS011;14708;50.872;5.306;2023-05-19T12:57:28;10.98;;;4.95;;
27187;SDS011;14708;50.872;5.306;2023-05-19T13:00:01;10.00;;;5.07;;
27187;SDS011;14708;50.872;5.306;2023-05-19T13:02:28;14.10;;;5.65;;
27187;SDS011;14708;50.872;5.306;2023-05-19T13:04:54;10.23;;;5.00;;
27187;SDS011;14708;50.872;5.306;2023-05-19T13:07:22;9.80;;;4.97;;
27187;SDS011;14708;50.872;5.306;2023-05-19T13:09:48;10.02;;;4.53;;
27187;SDS011;14708;50.872;5.306;2023-05-19T13:12:13;10.73;;;5.07;;
27187;SDS011;14708;50.872;5.306;2023-05-19T13:14:39;12.25;;;5.25;;
27187;SDS011;14708;50.872;5.306;2023-05-19T13:17:07;9.95;;;5.22;;
27187;SDS011;14708;50.872;5.306;2023-05-19T13:19:33;12.88;;;5.10;;
27187;SDS011;14708;50.872;5.306;2023-05-19T13:21:58;10.18;;;4.93;;
27187;SDS011;14708;50.872;5.306;2023-05-19T13:24:24;9.93;;;4.40;;
27187;SDS011;14708;50.872;5.306;2023-05-19T13:26:50;10.40;;;4.30;;
27187;SDS011;14708;50.872;5.306;2023-05-19T13:29:15;9.55;;;4.70;;
27187;SDS011;14708;50.872;5.306;2023-05-19T13:31:41;9.25;;;4.20;;
27187;SDS011;14708;50.872;5.306;2023-05-19T13:34:07;8.40;;;4.60;;
27187;SDS011;14708;50.872;5.306;2023-05-19T13:36:32;7.97;;;4.55;;
27187;SDS011;14708;50.872;5.306;2023-05-19T13:38:59;11.77;;;5.25;;
27187;SDS011;14708;50.872;5.306;2023-05-19T13:41:25;11.85;;;5.15;;
27187;SDS011;14708;50.872;5.306;2023-05-19T13:43:53;9.15;;;4.55;;
27187;SDS011;14708;50.872;5.306;2023-05-19T13:46:19;8.85;;;4.00;;
27187;SDS011;14708;50.872;5.306;2023-05-19T13:48:44;8.65;;;4.15;;
27187;SDS011;14708;50.872;5.306;2023-05-19T13:51:10;8.20;;;4.07;;
27187;SDS011;14708;50.872;5.306;2023-05-19T13:53:36;10.43;;;4.50;;
27187;SDS011;14708;50.872;5.306;2023-05-19T13:56:03;7.55;;;3.45;;
27187;SDS011;14708;50.872;5.306;2023-05-19T13:58:29;9.55;;;4.10;;
27187;SDS011;14708;50.872;5.306;2023-05-19T14:00:54;10.13;;;4.20;;
27187;SDS011;14708;50.872;5.306;2023-05-19T14:03:23;15.38;;;5.65;;
27187;SDS011;14708;50.872;5.306;2023-05-19T14:05:49;42.45;;;13.15;;
27187;SDS011;14708;50.872;5.306;2023-05-19T14:08:15;36.75;;;10.48;;
27187;SDS011;14708;50.872;5.306;2023-05-19T14:10:41;40.42;;;10.35;;
27187;SDS011;14708;50.872;5.306;2023-05-19T14:13:07;34.55;;;10.65;;
27187;SDS011;14708;50.872;5.306;2023-05-19T14:15:35;38.22;;;11.35;;
27187;SDS011;14708;50.872;5.306;2023-05-19T14:18:01;30.88;;;11.80;;
27187;SDS011;14708;50.872;5.306;2023-05-19T14:20:27;38.97;;;20.38;;
27187;SDS011;14708;50.872;5.306;2023-05-19T14:22:53;33.85;;;18.52;;
27187;SDS011;14708;50.872;5.306;2023-05-19T14:25:19;33.38;;;15.35;;
27187;SDS011;14708;50.872;5.306;2023-05-19T14:27:45;40.58;;;17.17;;
27187;SDS011;14708;50.872;5.306;2023-05-19T14:30:11;32.95;;;18.23;;
27187;SDS011;14708;50.872;5.306;2023-05-19T14:32:37;44.22;;;20.83;;
27187;SDS011;14708;50.872;5.306;2023-05-19T14:35:02;40.85;;;21.27;;
27187;SDS011;14708;50.872;5.306;2023-05-19T14:37:28;45.45;;;25.02;;
27187;SDS011;14708;50.872;5.306;2023-05-19T14:39:56;53.45;;;26.58;;
27187;SDS011;14708;50.872;5.306;2023-05-19T14:42:23;46.72;;;23.95;;
27187;SDS011;14708;50.872;5.306;2023-05-19T14:44:48;48.00;;;24.40;;
27187;SDS011;14708;50.872;5.306;2023-05-19T14:47:14;43.63;;;25.00;;
27187;SDS011;14708;50.872;5.306;2023-05-19T14:49:40;49.15;;;27.40;;
27187;SDS011;14708;50.872;5.306;2023-05-19T14:52:05;43.60;;;25.42;;
27187;SDS011;14708;50.872;5.306;2023-05-19T14:54:31;47.45;;;26.65;;
27187;SDS011;14708;50.872;5.306;2023-05-19T14:56:57;46.85;;;25.50;;
27187;SDS011;14708;50.872;5.306;2023-05-19T14:59:23;35.22;;;19.85;;
27187;SDS011;14708;50.872;5.306;2023-05-19T15:01:49;36.60;;;19.92;;
27187;SDS011;14708;50.872;5.306;2023-05-19T15:04:15;34.78;;;19.23;;
27187;SDS011;14708;50.872;5.306;2023-05-19T15:06:40;35.15;;;19.55;;
27187;SDS011;14708;50.872;5.306;2023-05-19T15:09:06;43.55;;;20.00;;
27187;SDS011;14708;50.872;5.306;2023-05-19T15:11:32;40.35;;;20.98;;
27187;SDS011;14708;50.872;5.306;2023-05-19T15:13:58;35.80;;;20.17;;
27187;SDS011;14708;50.872;5.306;2023-05-19T15:16:23;35.05;;;19.58;;